Rocklake, North Dakota
Current Conditions -  °F | °C
As of 4:55 PM on Thursday 27 Nov 2014 (Local Time) from K06D Reporting Station
Light Snow Light Snow  
Wind Chill: -9°   Ceiling: Unl
Heat Index:   Visibility: 1.2mi
Dew Point:   Wind: 12mph
Humidity: 79%   Direction: 180°S
Pressure: 30.09"   Gusts: NA
Location:  48.79°N, 99.25°W
Report Text: K06D 272255Z AUTO 18010KT 1 1/4SM -SN CLR M14/M17 A3009 RMK AO2
Loading
Personal Weather Stations






























Interactive Weather Map New forecast layout! Learn more

10-Day Weather Forecast

Advertisements
Track Severe Weather on mobile